sensor_id;sensor_type;location;lat;lon;timestamp;P1;durP1;ratioP1;P2;durP2;ratioP2
40635;SDS011;26642;55.766;37.828;2023-02-01T00:02:18;10.10;;;5.70;;
40635;SDS011;26642;55.766;37.828;2023-02-01T00:04:44;9.02;;;5.22;;
40635;SDS011;26642;55.766;37.828;2023-02-01T00:07:10;8.27;;;5.25;;
40635;SDS011;26642;55.766;37.828;2023-02-01T00:09:36;8.85;;;5.32;;
40635;SDS011;26642;55.766;37.828;2023-02-01T00:12:02;8.18;;;5.20;;
40635;SDS011;26642;55.766;37.828;2023-02-01T00:14:29;10.18;;;5.32;;
40635;SDS011;26642;55.766;37.828;2023-02-01T00:16:55;7.90;;;5.43;;
40635;SDS011;26642;55.766;37.828;2023-02-01T00:19:20;9.23;;;5.60;;
40635;SDS011;26642;55.766;37.828;2023-02-01T00:21:46;7.78;;;4.90;;
40635;SDS011;26642;55.766;37.828;2023-02-01T00:24:12;9.38;;;5.40;;
40635;SDS011;26642;55.766;37.828;2023-02-01T00:26:40;8.38;;;5.15;;
40635;SDS011;26642;55.766;37.828;2023-02-01T00:29:18;8.65;;;4.97;;
40635;SDS011;26642;55.766;37.828;2023-02-01T00:31:45;9.23;;;5.80;;
40635;SDS011;26642;55.766;37.828;2023-02-01T00:34:13;9.05;;;4.95;;
40635;SDS011;26642;55.766;37.828;2023-02-01T00:36:41;11.10;;;6.10;;
40635;SDS011;26642;55.766;37.828;2023-02-01T00:39:08;8.57;;;5.32;;
40635;SDS011;26642;55.766;37.828;2023-02-01T00:41:34;8.07;;;4.75;;
40635;SDS011;26642;55.766;37.828;2023-02-01T00:44:00;9.63;;;5.78;;
40635;SDS011;26642;55.766;37.828;2023-02-01T00:46:27;8.07;;;5.15;;
40635;SDS011;26642;55.766;37.828;2023-02-01T00:48:53;8.30;;;5.05;;
40635;SDS011;26642;55.766;37.828;2023-02-01T00:51:21;6.70;;;4.75;;
40635;SDS011;26642;55.766;37.828;2023-02-01T00:53:48;8.07;;;5.57;;
40635;SDS011;26642;55.766;37.828;2023-02-01T00:56:15;8.63;;;5.60;;
40635;SDS011;26642;55.766;37.828;2023-02-01T00:58:41;9.15;;;5.40;;
40635;SDS011;26642;55.766;37.828;2023-02-01T01:01:15;9.32;;;5.30;;
40635;SDS011;26642;55.766;37.828;2023-02-01T01:03:45;8.38;;;4.90;;
40635;SDS011;26642;55.766;37.828;2023-02-01T01:06:17;8.73;;;5.07;;
40635;SDS011;26642;55.766;37.828;2023-02-01T01:08:52;8.75;;;5.57;;
40635;SDS011;26642;55.766;37.828;2023-02-01T01:11:20;9.40;;;5.72;;
40635;SDS011;26642;55.766;37.828;2023-02-01T01:13:49;8.15;;;4.90;;
40635;SDS011;26642;55.766;37.828;2023-02-01T01:16:16;7.78;;;5.78;;
40635;SDS011;26642;55.766;37.828;2023-02-01T01:18:43;8.52;;;5.18;;
40635;SDS011;26642;55.766;37.828;2023-02-01T01:21:11;8.32;;;5.28;;
40635;SDS011;26642;55.766;37.828;2023-02-01T01:23:39;7.20;;;4.85;;
40635;SDS011;26642;55.766;37.828;2023-02-01T01:26:08;7.80;;;4.80;;
40635;SDS011;26642;55.766;37.828;2023-02-01T01:28:36;8.75;;;5.40;;
40635;SDS011;26642;55.766;37.828;2023-02-01T01:31:02;7.70;;;5.18;;
40635;SDS011;26642;55.766;37.828;2023-02-01T01:33:32;8.07;;;5.28;;
40635;SDS011;26642;55.766;37.828;2023-02-01T01:35:58;8.80;;;5.32;;
40635;SDS011;26642;55.766;37.828;2023-02-01T01:38:24;8.68;;;5.15;;
40635;SDS011;26642;55.766;37.828;2023-02-01T01:40:50;9.93;;;5.47;;
40635;SDS011;26642;55.766;37.828;2023-02-01T01:43:17;9.00;;;5.07;;
40635;SDS011;26642;55.766;37.828;2023-02-01T01:45:49;8.52;;;5.78;;
40635;SDS011;26642;55.766;37.828;2023-02-01T01:48:26;8.63;;;5.35;;
40635;SDS011;26642;55.766;37.828;2023-02-01T01:50:56;9.00;;;5.90;;
40635;SDS011;26642;55.766;37.828;2023-02-01T01:53:27;6.15;;;4.90;;
40635;SDS011;26642;55.766;37.828;2023-02-01T01:55:58;9.15;;;5.32;;
40635;SDS011;26642;55.766;37.828;2023-02-01T01:58:26;7.03;;;4.88;;
40635;SDS011;26642;55.766;37.828;2023-02-01T02:00:56;8.05;;;5.35;;
40635;SDS011;26642;55.766;37.828;2023-02-01T02:03:22;8.73;;;5.10;;
40635;SDS011;26642;55.766;37.828;2023-02-01T02:05:53;8.02;;;5.18;;
40635;SDS011;26642;55.766;37.828;2023-02-01T02:08:23;9.85;;;4.95;;
40635;SDS011;26642;55.766;37.828;2023-02-01T02:10:51;7.88;;;5.30;;
40635;SDS011;26642;55.766;37.828;2023-02-01T02:13:27;7.43;;;5.00;;
40635;SDS011;26642;55.766;37.828;2023-02-01T02:16:04;8.30;;;5.50;;
40635;SDS011;26642;55.766;37.828;2023-02-01T02:30:05;8.80;;;5.63;;
40635;SDS011;26642;55.766;37.828;2023-02-01T02:38:02;7.63;;;5.00;;
40635;SDS011;26642;55.766;37.828;2023-02-01T02:43:35;8.30;;;5.30;;
40635;SDS011;26642;55.766;37.828;2023-02-01T02:46:32;7.97;;;5.30;;
40635;SDS011;26642;55.766;37.828;2023-02-01T02:49:34;9.10;;;5.23;;
40635;SDS011;26642;55.766;37.828;2023-02-01T02:52:07;9.07;;;5.88;;
40635;SDS011;26642;55.766;37.828;2023-02-01T02:54:56;8.20;;;5.32;;
40635;SDS011;26642;55.766;37.828;2023-02-01T03:00:10;9.02;;;5.65;;
40635;SDS011;26642;55.766;37.828;2023-02-01T03:03:00;8.50;;;4.90;;
40635;SDS011;26642;55.766;37.828;2023-02-01T03:05:46;8.80;;;5.45;;
40635;SDS011;26642;55.766;37.828;2023-02-01T03:08:18;9.82;;;5.88;;
40635;SDS011;26642;55.766;37.828;2023-02-01T03:11:02;8.70;;;5.65;;
40635;SDS011;26642;55.766;37.828;2023-02-01T03:16:11;7.47;;;5.13;;
40635;SDS011;26642;55.766;37.828;2023-02-01T03:22:15;8.82;;;5.82;;
40635;SDS011;26642;55.766;37.828;2023-02-01T03:24:47;9.40;;;5.43;;
40635;SDS011;26642;55.766;37.828;2023-02-01T03:32:33;8.52;;;5.40;;
40635;SDS011;26642;55.766;37.828;2023-02-01T03:35:23;7.13;;;4.60;;
40635;SDS011;26642;55.766;37.828;2023-02-01T03:38:12;8.98;;;5.72;;
40635;SDS011;26642;55.766;37.828;2023-02-01T03:40:39;9.90;;;5.13;;
40635;SDS011;26642;55.766;37.828;2023-02-01T03:43:10;9.38;;;5.50;;
40635;SDS011;26642;55.766;37.828;2023-02-01T03:45:42;9.35;;;5.60;;
40635;SDS011;26642;55.766;37.828;2023-02-01T03:48:13;8.57;;;5.50;;
40635;SDS011;26642;55.766;37.828;2023-02-01T03:50:46;8.70;;;5.22;;
40635;SDS011;26642;55.766;37.828;2023-02-01T03:53:18;9.38;;;5.90;;
40635;SDS011;26642;55.766;37.828;2023-02-01T03:55:48;7.72;;;5.22;;
40635;SDS011;26642;55.766;37.828;2023-02-01T03:58:18;9.82;;;5.57;;
40635;SDS011;26642;55.766;37.828;2023-02-01T04:00:49;8.02;;;4.95;;
40635;SDS011;26642;55.766;37.828;2023-02-01T04:03:20;9.70;;;5.55;;
40635;SDS011;26642;55.766;37.828;2023-02-01T04:05:50;11.50;;;5.85;;
40635;SDS011;26642;55.766;37.828;2023-02-01T04:08:19;9.25;;;5.70;;
40635;SDS011;26642;55.766;37.828;2023-02-01T04:10:45;10.25;;;6.13;;
40635;SDS011;26642;55.766;37.828;2023-02-01T04:13:11;10.13;;;5.93;;
40635;SDS011;26642;55.766;37.828;2023-02-01T04:15:38;9.10;;;5.88;;
40635;SDS011;26642;55.766;37.828;2023-02-01T04:18:04;10.10;;;5.93;;
40635;SDS011;26642;55.766;37.828;2023-02-01T04:20:30;9.85;;;5.50;;
40635;SDS011;26642;55.766;37.828;2023-02-01T04:22:57;9.40;;;5.32;;
40635;SDS011;26642;55.766;37.828;2023-02-01T04:25:23;9.85;;;6.03;;
40635;SDS011;26642;55.766;37.828;2023-02-01T04:27:50;9.70;;;5.82;;
40635;SDS011;26642;55.766;37.828;2023-02-01T04:30:16;10.05;;;6.32;;
40635;SDS011;26642;55.766;37.828;2023-02-01T04:32:42;9.75;;;6.07;;
40635;SDS011;26642;55.766;37.828;2023-02-01T04:35:08;9.88;;;5.80;;
40635;SDS011;26642;55.766;37.828;2023-02-01T04:37:35;10.10;;;5.75;;
40635;SDS011;26642;55.766;37.828;2023-02-01T04:40:01;10.85;;;6.00;;
40635;SDS011;26642;55.766;37.828;2023-02-01T04:42:29;12.50;;;6.47;;
40635;SDS011;26642;55.766;37.828;2023-02-01T04:44:55;11.05;;;6.22;;
40635;SDS011;26642;55.766;37.828;2023-02-01T04:47:21;11.65;;;6.57;;
40635;SDS011;26642;55.766;37.828;2023-02-01T04:49:47;11.27;;;6.60;;
40635;SDS011;26642;55.766;37.828;2023-02-01T04:52:13;12.50;;;7.00;;
40635;SDS011;26642;55.766;37.828;2023-02-01T04:54:39;13.55;;;7.45;;
40635;SDS011;26642;55.766;37.828;2023-02-01T04:57:05;12.68;;;6.78;;
40635;SDS011;26642;55.766;37.828;2023-02-01T04:59:31;11.80;;;7.18;;
40635;SDS011;26642;55.766;37.828;2023-02-01T05:01:57;13.57;;;7.50;;
40635;SDS011;26642;55.766;37.828;2023-02-01T05:04:23;13.10;;;7.60;;
40635;SDS011;26642;55.766;37.828;2023-02-01T05:06:49;16.27;;;8.00;;
40635;SDS011;26642;55.766;37.828;2023-02-01T05:09:15;14.80;;;8.43;;
40635;SDS011;26642;55.766;37.828;2023-02-01T05:11:41;13.93;;;7.50;;
40635;SDS011;26642;55.766;37.828;2023-02-01T05:14:25;15.13;;;8.15;;
40635;SDS011;26642;55.766;37.828;2023-02-01T05:16:51;15.20;;;7.93;;
40635;SDS011;26642;55.766;37.828;2023-02-01T05:19:17;16.42;;;8.35;;
40635;SDS011;26642;55.766;37.828;2023-02-01T05:21:43;13.48;;;7.85;;
40635;SDS011;26642;55.766;37.828;2023-02-01T05:24:09;15.75;;;8.30;;
40635;SDS011;26642;55.766;37.828;2023-02-01T05:26:39;14.60;;;7.22;;
40635;SDS011;26642;55.766;37.828;2023-02-01T05:29:05;15.52;;;8.52;;
40635;SDS011;26642;55.766;37.828;2023-02-01T05:31:33;12.68;;;7.95;;
40635;SDS011;26642;55.766;37.828;2023-02-01T05:33:59;15.48;;;7.90;;
40635;SDS011;26642;55.766;37.828;2023-02-01T05:36:25;14.32;;;8.13;;
40635;SDS011;26642;55.766;37.828;2023-02-01T05:38:51;16.20;;;8.27;;
40635;SDS011;26642;55.766;37.828;2023-02-01T05:41:17;16.55;;;8.65;;
40635;SDS011;26642;55.766;37.828;2023-02-01T05:43:43;14.80;;;7.75;;
40635;SDS011;26642;55.766;37.828;2023-02-01T05:46:09;14.20;;;7.90;;
40635;SDS011;26642;55.766;37.828;2023-02-01T05:48:38;16.15;;;7.97;;
40635;SDS011;26642;55.766;37.828;2023-02-01T05:51:07;13.88;;;8.02;;
40635;SDS011;26642;55.766;37.828;2023-02-01T05:53:34;16.90;;;8.98;;
40635;SDS011;26642;55.766;37.828;2023-02-01T05:56:00;14.82;;;8.30;;
40635;SDS011;26642;55.766;37.828;2023-02-01T05:58:26;17.73;;;8.48;;
40635;SDS011;26642;55.766;37.828;2023-02-01T06:00:52;15.30;;;8.10;;
40635;SDS011;26642;55.766;37.828;2023-02-01T06:03:18;14.82;;;8.43;;
40635;SDS011;26642;55.766;37.828;2023-02-01T06:05:44;14.85;;;7.43;;
40635;SDS011;26642;55.766;37.828;2023-02-01T06:08:11;15.52;;;8.20;;
40635;SDS011;26642;55.766;37.828;2023-02-01T06:10:38;14.52;;;8.07;;
40635;SDS011;26642;55.766;37.828;2023-02-01T06:13:04;15.73;;;9.40;;
40635;SDS011;26642;55.766;37.828;2023-02-01T06:15:30;14.75;;;8.13;;
40635;SDS011;26642;55.766;37.828;2023-02-01T06:17:57;16.48;;;7.68;;
40635;SDS011;26642;55.766;37.828;2023-02-01T06:20:23;15.30;;;8.88;;
40635;SDS011;26642;55.766;37.828;2023-02-01T06:22:49;14.05;;;8.20;;
40635;SDS011;26642;55.766;37.828;2023-02-01T06:25:15;16.08;;;8.27;;
40635;SDS011;26642;55.766;37.828;2023-02-01T06:27:42;16.38;;;9.23;;
40635;SDS011;26642;55.766;37.828;2023-02-01T06:30:10;18.65;;;9.95;;
40635;SDS011;26642;55.766;37.828;2023-02-01T06:32:41;17.00;;;9.63;;
40635;SDS011;26642;55.766;37.828;2023-02-01T06:35:08;15.93;;;9.32;;
40635;SDS011;26642;55.766;37.828;2023-02-01T06:37:36;20.60;;;9.93;;
40635;SDS011;26642;55.766;37.828;2023-02-01T06:40:03;16.40;;;9.05;;
40635;SDS011;26642;55.766;37.828;2023-02-01T06:42:30;16.60;;;9.52;;
40635;SDS011;26642;55.766;37.828;2023-02-01T06:44:56;18.60;;;9.02;;
40635;SDS011;26642;55.766;37.828;2023-02-01T06:47:22;16.15;;;8.70;;
40635;SDS011;26642;55.766;37.828;2023-02-01T06:49:48;14.65;;;8.57;;
40635;SDS011;26642;55.766;37.828;2023-02-01T06:52:14;15.70;;;8.98;;
40635;SDS011;26642;55.766;37.828;2023-02-01T06:54:39;14.23;;;8.35;;
40635;SDS011;26642;55.766;37.828;2023-02-01T06:57:05;18.10;;;9.48;;
40635;SDS011;26642;55.766;37.828;2023-02-01T06:59:31;16.98;;;8.77;;
40635;SDS011;26642;55.766;37.828;2023-02-01T07:01:57;14.30;;;9.02;;
40635;SDS011;26642;55.766;37.828;2023-02-01T07:04:23;14.57;;;8.00;;
40635;SDS011;26642;55.766;37.828;2023-02-01T07:06:49;16.08;;;8.75;;
40635;SDS011;26642;55.766;37.828;2023-02-01T07:09:15;16.23;;;8.52;;
40635;SDS011;26642;55.766;37.828;2023-02-01T07:11:41;13.27;;;7.93;;
40635;SDS011;26642;55.766;37.828;2023-02-01T07:14:11;15.57;;;8.98;;
40635;SDS011;26642;55.766;37.828;2023-02-01T07:16:37;12.73;;;7.20;;
40635;SDS011;26642;55.766;37.828;2023-02-01T07:19:03;15.43;;;8.20;;
40635;SDS011;26642;55.766;37.828;2023-02-01T07:21:29;13.93;;;8.10;;
40635;SDS011;26642;55.766;37.828;2023-02-01T07:23:55;15.98;;;7.97;;
40635;SDS011;26642;55.766;37.828;2023-02-01T07:26:21;14.93;;;8.35;;
40635;SDS011;26642;55.766;37.828;2023-02-01T07:28:47;16.40;;;8.18;;
40635;SDS011;26642;55.766;37.828;2023-02-01T07:31:15;16.33;;;8.02;;
40635;SDS011;26642;55.766;37.828;2023-02-01T07:33:44;15.27;;;8.52;;
40635;SDS011;26642;55.766;37.828;2023-02-01T07:36:11;14.20;;;8.20;;
40635;SDS011;26642;55.766;37.828;2023-02-01T07:38:39;15.65;;;8.90;;
40635;SDS011;26642;55.766;37.828;2023-02-01T07:41:06;17.17;;;8.93;;
40635;SDS011;26642;55.766;37.828;2023-02-01T07:43:33;14.40;;;8.45;;
40635;SDS011;26642;55.766;37.828;2023-02-01T07:46:00;14.63;;;9.15;;
40635;SDS011;26642;55.766;37.828;2023-02-01T07:48:26;15.05;;;8.75;;
40635;SDS011;26642;55.766;37.828;2023-02-01T07:51:07;16.63;;;8.50;;
40635;SDS011;26642;55.766;37.828;2023-02-01T07:53:35;17.10;;;8.90;;
40635;SDS011;26642;55.766;37.828;2023-02-01T07:56:01;14.43;;;7.95;;
40635;SDS011;26642;55.766;37.828;2023-02-01T07:58:28;13.60;;;7.70;;
40635;SDS011;26642;55.766;37.828;2023-02-01T08:00:54;13.10;;;8.35;;
40635;SDS011;26642;55.766;37.828;2023-02-01T08:03:39;15.63;;;8.90;;
40635;SDS011;26642;55.766;37.828;2023-02-01T08:06:05;14.75;;;8.35;;
40635;SDS011;26642;55.766;37.828;2023-02-01T08:08:32;13.48;;;7.32;;
40635;SDS011;26642;55.766;37.828;2023-02-01T08:10:58;8.90;;;5.05;;
40635;SDS011;26642;55.766;37.828;2023-02-01T08:13:25;7.88;;;4.32;;
40635;SDS011;26642;55.766;37.828;2023-02-01T08:15:51;10.45;;;5.75;;
40635;SDS011;26642;55.766;37.828;2023-02-01T08:18:17;10.05;;;6.25;;
40635;SDS011;26642;55.766;37.828;2023-02-01T08:20:44;10.38;;;5.60;;
40635;SDS011;26642;55.766;37.828;2023-02-01T08:23:13;10.70;;;6.60;;
40635;SDS011;26642;55.766;37.828;2023-02-01T08:25:39;14.75;;;7.78;;
40635;SDS011;26642;55.766;37.828;2023-02-01T08:28:05;15.63;;;7.32;;
40635;SDS011;26642;55.766;37.828;2023-02-01T08:30:32;12.90;;;7.85;;
40635;SDS011;26642;55.766;37.828;2023-02-01T08:32:58;11.52;;;7.25;;
40635;SDS011;26642;55.766;37.828;2023-02-01T08:35:24;13.02;;;7.57;;
40635;SDS011;26642;55.766;37.828;2023-02-01T08:37:50;12.13;;;7.65;;
40635;SDS011;26642;55.766;37.828;2023-02-01T08:40:16;13.45;;;7.47;;
40635;SDS011;26642;55.766;37.828;2023-02-01T08:42:43;13.90;;;7.18;;
40635;SDS011;26642;55.766;37.828;2023-02-01T08:45:18;13.98;;;7.63;;
40635;SDS011;26642;55.766;37.828;2023-02-01T08:47:45;12.40;;;6.97;;
40635;SDS011;26642;55.766;37.828;2023-02-01T08:50:12;15.00;;;7.63;;
40635;SDS011;26642;55.766;37.828;2023-02-01T08:52:39;15.43;;;7.35;;
40635;SDS011;26642;55.766;37.828;2023-02-01T08:55:05;10.95;;;7.15;;
40635;SDS011;26642;55.766;37.828;2023-02-01T08:57:32;13.32;;;8.48;;
40635;SDS011;26642;55.766;37.828;2023-02-01T08:59:58;14.32;;;7.95;;
40635;SDS011;26642;55.766;37.828;2023-02-01T09:02:25;14.77;;;7.40;;
40635;SDS011;26642;55.766;37.828;2023-02-01T09:04:51;11.80;;;7.40;;
40635;SDS011;26642;55.766;37.828;2023-02-01T09:07:17;13.43;;;7.70;;
40635;SDS011;26642;55.766;37.828;2023-02-01T09:09:44;11.77;;;7.32;;
40635;SDS011;26642;55.766;37.828;2023-02-01T09:12:11;14.65;;;7.90;;
40635;SDS011;26642;55.766;37.828;2023-02-01T09:14:37;13.98;;;7.55;;
40635;SDS011;26642;55.766;37.828;2023-02-01T09:17:03;12.70;;;7.40;;
40635;SDS011;26642;55.766;37.828;2023-02-01T09:19:30;15.05;;;8.63;;
40635;SDS011;26642;55.766;37.828;2023-02-01T09:21:57;11.38;;;6.95;;
40635;SDS011;26642;55.766;37.828;2023-02-01T09:24:23;11.25;;;7.28;;
40635;SDS011;26642;55.766;37.828;2023-02-01T09:26:49;13.13;;;7.60;;
40635;SDS011;26642;55.766;37.828;2023-02-01T09:29:15;13.35;;;7.32;;
40635;SDS011;26642;55.766;37.828;2023-02-01T09:31:41;13.98;;;7.35;;
40635;SDS011;26642;55.766;37.828;2023-02-01T09:34:07;12.00;;;6.75;;
40635;SDS011;26642;55.766;37.828;2023-02-01T09:36:34;11.20;;;7.30;;
40635;SDS011;26642;55.766;37.828;2023-02-01T09:39:00;12.30;;;6.75;;
40635;SDS011;26642;55.766;37.828;2023-02-01T09:47:18;9.82;;;6.45;;
40635;SDS011;26642;55.766;37.828;2023-02-01T09:49:55;10.30;;;6.63;;
40635;SDS011;26642;55.766;37.828;2023-02-01T09:52:40;12.73;;;7.50;;
40635;SDS011;26642;55.766;37.828;2023-02-01T09:58:13;9.75;;;5.95;;
40635;SDS011;26642;55.766;37.828;2023-02-01T10:00:45;9.55;;;6.20;;
40635;SDS011;26642;55.766;37.828;2023-02-01T10:03:17;12.45;;;7.32;;
40635;SDS011;26642;55.766;37.828;2023-02-01T10:05:56;10.85;;;7.22;;
40635;SDS011;26642;55.766;37.828;2023-02-01T10:27:01;10.30;;;6.35;;
40635;SDS011;26642;55.766;37.828;2023-02-01T10:29:34;10.80;;;6.40;;
40635;SDS011;26642;55.766;37.828;2023-02-01T10:32:10;10.35;;;6.82;;
40635;SDS011;26642;55.766;37.828;2023-02-01T10:34:58;11.40;;;6.72;;
40635;SDS011;26642;55.766;37.828;2023-02-01T10:37:30;10.77;;;7.07;;
40635;SDS011;26642;55.766;37.828;2023-02-01T10:39:59;11.07;;;7.20;;
40635;SDS011;26642;55.766;37.828;2023-02-01T10:42:27;10.57;;;6.90;;
40635;SDS011;26642;55.766;37.828;2023-02-01T10:44:56;10.82;;;7.32;;
40635;SDS011;26642;55.766;37.828;2023-02-01T10:47:25;11.43;;;7.32;;
40635;SDS011;26642;55.766;37.828;2023-02-01T10:50:35;11.23;;;7.28;;
40635;SDS011;26642;55.766;37.828;2023-02-01T10:58:20;11.30;;;7.70;;
40635;SDS011;26642;55.766;37.828;2023-02-01T11:00:56;11.18;;;7.05;;
40635;SDS011;26642;55.766;37.828;2023-02-01T11:06:28;10.15;;;6.68;;
40635;SDS011;26642;55.766;37.828;2023-02-01T11:11:56;12.30;;;7.40;;
40635;SDS011;26642;55.766;37.828;2023-02-01T11:14:27;11.77;;;7.05;;
40635;SDS011;26642;55.766;37.828;2023-02-01T11:17:00;10.55;;;6.78;;
40635;SDS011;26642;55.766;37.828;2023-02-01T11:19:35;9.00;;;5.88;;
40635;SDS011;26642;55.766;37.828;2023-02-01T11:22:03;10.50;;;6.38;;
40635;SDS011;26642;55.766;37.828;2023-02-01T11:24:31;10.02;;;6.65;;
40635;SDS011;26642;55.766;37.828;2023-02-01T11:27:04;12.30;;;7.03;;
40635;SDS011;26642;55.766;37.828;2023-02-01T11:29:40;11.88;;;7.72;;
40635;SDS011;26642;55.766;37.828;2023-02-01T11:32:09;9.27;;;6.63;;
40635;SDS011;26642;55.766;37.828;2023-02-01T11:34:38;9.93;;;7.13;;
40635;SDS011;26642;55.766;37.828;2023-02-01T11:37:19;11.68;;;7.70;;
40635;SDS011;26642;55.766;37.828;2023-02-01T11:39:56;12.15;;;7.75;;
40635;SDS011;26642;55.766;37.828;2023-02-01T11:45:38;10.95;;;7.30;;
40635;SDS011;26642;55.766;37.828;2023-02-01T11:48:09;10.50;;;7.05;;
40635;SDS011;26642;55.766;37.828;2023-02-01T12:04:56;13.00;;;7.50;;
40635;SDS011;26642;55.766;37.828;2023-02-01T12:10:11;13.63;;;7.90;;
40635;SDS011;26642;55.766;37.828;2023-02-01T12:12:54;12.50;;;7.82;;
40635;SDS011;26642;55.766;37.828;2023-02-01T12:18:26;13.48;;;8.85;;
40635;SDS011;26642;55.766;37.828;2023-02-01T12:21:06;13.18;;;7.63;;
40635;SDS011;26642;55.766;37.828;2023-02-01T12:39:57;12.38;;;7.78;;
40635;SDS011;26642;55.766;37.828;2023-02-01T12:42:41;12.60;;;7.57;;
40635;SDS011;26642;55.766;37.828;2023-02-01T12:50:49;11.20;;;7.07;;
40635;SDS011;26642;55.766;37.828;2023-02-01T12:56:21;11.30;;;6.85;;
40635;SDS011;26642;55.766;37.828;2023-02-01T12:58:52;10.23;;;6.65;;
40635;SDS011;26642;55.766;37.828;2023-02-01T13:06:43;10.23;;;6.68;;
40635;SDS011;26642;55.766;37.828;2023-02-01T13:11:58;10.20;;;7.00;;
40635;SDS011;26642;55.766;37.828;2023-02-01T13:14:38;10.40;;;6.68;;
40635;SDS011;26642;55.766;37.828;2023-02-01T13:17:29;8.63;;;6.15;;
40635;SDS011;26642;55.766;37.828;2023-02-01T13:20:21;10.52;;;6.25;;
40635;SDS011;26642;55.766;37.828;2023-02-01T13:27:56;11.55;;;6.88;;
40635;SDS011;26642;55.766;37.828;2023-02-01T13:30:30;11.13;;;6.80;;
40635;SDS011;26642;55.766;37.828;2023-02-01T13:33:42;9.52;;;6.45;;
40635;SDS011;26642;55.766;37.828;2023-02-01T13:36:18;10.68;;;7.13;;
40635;SDS011;26642;55.766;37.828;2023-02-01T13:41:54;10.43;;;6.93;;
40635;SDS011;26642;55.766;37.828;2023-02-01T13:44:45;11.93;;;7.03;;
40635;SDS011;26642;55.766;37.828;2023-02-01T13:47:27;10.90;;;6.97;;
40635;SDS011;26642;55.766;37.828;2023-02-01T13:49:59;10.23;;;6.80;;
40635;SDS011;26642;55.766;37.828;2023-02-01T13:52:32;10.57;;;6.55;;
40635;SDS011;26642;55.766;37.828;2023-02-01T13:57:44;12.82;;;7.65;;
40635;SDS011;26642;55.766;37.828;2023-02-01T14:00:28;10.88;;;7.28;;
40635;SDS011;26642;55.766;37.828;2023-02-01T14:08:09;11.85;;;6.45;;
40635;SDS011;26642;55.766;37.828;2023-02-01T14:13:22;10.93;;;6.88;;
40635;SDS011;26642;55.766;37.828;2023-02-01T14:23:46;10.05;;;6.35;;
40635;SDS011;26642;55.766;37.828;2023-02-01T14:26:24;11.82;;;7.50;;
40635;SDS011;26642;55.766;37.828;2023-02-01T14:34:17;10.90;;;7.28;;
40635;SDS011;26642;55.766;37.828;2023-02-01T14:36:58;12.75;;;7.68;;
40635;SDS011;26642;55.766;37.828;2023-02-01T14:40:03;12.10;;;7.05;;
40635;SDS011;26642;55.766;37.828;2023-02-01T14:42:28;11.57;;;7.05;;
40635;SDS011;26642;55.766;37.828;2023-02-01T14:55:46;11.93;;;6.72;;
40635;SDS011;26642;55.766;37.828;2023-02-01T15:01:03;14.80;;;9.20;;
40635;SDS011;26642;55.766;37.828;2023-02-01T15:14:37;19.73;;;10.23;;
40635;SDS011;26642;55.766;37.828;2023-02-01T15:20:03;17.90;;;10.23;;
40635;SDS011;26642;55.766;37.828;2023-02-01T15:22:31;19.75;;;11.40;;
40635;SDS011;26642;55.766;37.828;2023-02-01T15:24:58;18.88;;;10.80;;
40635;SDS011;26642;55.766;37.828;2023-02-01T15:27:25;20.15;;;11.65;;
40635;SDS011;26642;55.766;37.828;2023-02-01T15:29:52;20.48;;;11.80;;
40635;SDS011;26642;55.766;37.828;2023-02-01T15:32:32;19.10;;;11.13;;
40635;SDS011;26642;55.766;37.828;2023-02-01T15:35:00;20.75;;;11.70;;
40635;SDS011;26642;55.766;37.828;2023-02-01T15:37:27;20.13;;;11.95;;
40635;SDS011;26642;55.766;37.828;2023-02-01T15:42:30;19.63;;;11.95;;
40635;SDS011;26642;55.766;37.828;2023-02-01T15:44:56;23.27;;;12.20;;
40635;SDS011;26642;55.766;37.828;2023-02-01T15:47:26;23.67;;;12.93;;
40635;SDS011;26642;55.766;37.828;2023-02-01T15:49:55;21.48;;;12.20;;
40635;SDS011;26642;55.766;37.828;2023-02-01T15:52:36;20.73;;;12.00;;
40635;SDS011;26642;55.766;37.828;2023-02-01T15:55:08;19.33;;;11.48;;
40635;SDS011;26642;55.766;37.828;2023-02-01T15:57:54;23.20;;;11.88;;
40635;SDS011;26642;55.766;37.828;2023-02-01T16:00:25;25.45;;;13.10;;
40635;SDS011;26642;55.766;37.828;2023-02-01T16:02:55;22.77;;;12.88;;
40635;SDS011;26642;55.766;37.828;2023-02-01T16:05:36;21.58;;;12.80;;
40635;SDS011;26642;55.766;37.828;2023-02-01T16:08:13;22.52;;;13.10;;
40635;SDS011;26642;55.766;37.828;2023-02-01T16:10:43;24.70;;;13.45;;
40635;SDS011;26642;55.766;37.828;2023-02-01T16:13:11;22.85;;;13.02;;
40635;SDS011;26642;55.766;37.828;2023-02-01T16:15:38;20.80;;;12.13;;
40635;SDS011;26642;55.766;37.828;2023-02-01T16:18:04;25.38;;;12.73;;
40635;SDS011;26642;55.766;37.828;2023-02-01T16:20:33;22.52;;;13.18;;
40635;SDS011;26642;55.766;37.828;2023-02-01T16:23:00;24.27;;;13.10;;
40635;SDS011;26642;55.766;37.828;2023-02-01T16:25:27;24.05;;;13.23;;
40635;SDS011;26642;55.766;37.828;2023-02-01T16:27:53;25.63;;;13.88;;
40635;SDS011;26642;55.766;37.828;2023-02-01T16:30:19;27.98;;;14.85;;
40635;SDS011;26642;55.766;37.828;2023-02-01T16:32:52;26.48;;;14.30;;
40635;SDS011;26642;55.766;37.828;2023-02-01T16:35:24;21.77;;;11.82;;
40635;SDS011;26642;55.766;37.828;2023-02-01T16:38:03;20.80;;;11.73;;
40635;SDS011;26642;55.766;37.828;2023-02-01T16:40:34;22.85;;;11.15;;
40635;SDS011;26642;55.766;37.828;2023-02-01T16:43:00;17.80;;;10.48;;
40635;SDS011;26642;55.766;37.828;2023-02-01T16:45:26;18.63;;;10.25;;
40635;SDS011;26642;55.766;37.828;2023-02-01T16:47:53;18.48;;;9.38;;
40635;SDS011;26642;55.766;37.828;2023-02-01T16:50:21;19.85;;;10.35;;
40635;SDS011;26642;55.766;37.828;2023-02-01T16:52:49;17.50;;;9.98;;
40635;SDS011;26642;55.766;37.828;2023-02-01T16:55:17;17.58;;;10.15;;
40635;SDS011;26642;55.766;37.828;2023-02-01T16:57:44;17.63;;;10.15;;
40635;SDS011;26642;55.766;37.828;2023-02-01T17:00:10;19.75;;;10.00;;
40635;SDS011;26642;55.766;37.828;2023-02-01T17:02:38;18.83;;;10.52;;
40635;SDS011;26642;55.766;37.828;2023-02-01T17:05:05;17.85;;;9.73;;
40635;SDS011;26642;55.766;37.828;2023-02-01T17:07:31;16.65;;;10.13;;
40635;SDS011;26642;55.766;37.828;2023-02-01T17:09:57;16.85;;;9.00;;
40635;SDS011;26642;55.766;37.828;2023-02-01T17:12:30;18.35;;;9.75;;
40635;SDS011;26642;55.766;37.828;2023-02-01T17:14:57;16.50;;;9.10;;
40635;SDS011;26642;55.766;37.828;2023-02-01T17:20:35;19.05;;;10.07;;
40635;SDS011;26642;55.766;37.828;2023-02-01T17:23:02;17.27;;;9.80;;
40635;SDS011;26642;55.766;37.828;2023-02-01T17:25:28;15.90;;;8.82;;
40635;SDS011;26642;55.766;37.828;2023-02-01T17:27:55;16.77;;;9.50;;
40635;SDS011;26642;55.766;37.828;2023-02-01T17:30:21;17.40;;;9.20;;
40635;SDS011;26642;55.766;37.828;2023-02-01T17:32:48;17.20;;;9.10;;
40635;SDS011;26642;55.766;37.828;2023-02-01T17:35:24;15.68;;;9.35;;
40635;SDS011;26642;55.766;37.828;2023-02-01T17:38:01;17.98;;;9.20;;
40635;SDS011;26642;55.766;37.828;2023-02-01T17:40:27;17.00;;;9.10;;
40635;SDS011;26642;55.766;37.828;2023-02-01T17:42:56;15.73;;;9.00;;
40635;SDS011;26642;55.766;37.828;2023-02-01T17:45:36;16.02;;;9.27;;
40635;SDS011;26642;55.766;37.828;2023-02-01T17:48:14;15.13;;;8.95;;
40635;SDS011;26642;55.766;37.828;2023-02-01T17:50:40;15.95;;;9.20;;
40635;SDS011;26642;55.766;37.828;2023-02-01T17:53:06;15.15;;;9.13;;
40635;SDS011;26642;55.766;37.828;2023-02-01T17:55:44;16.52;;;9.38;;